createdAt,value
2022-11-28T00:01:48.305Z,5.80
2022-11-28T00:04:18.013Z,6.43
2022-11-28T00:06:50.547Z,6.33
2022-11-28T00:09:22.168Z,6.70
2022-11-28T00:11:51.678Z,7.60
2022-11-28T00:14:21.934Z,6.87
2022-11-28T00:16:51.434Z,5.87
2022-11-28T00:19:21.060Z,6.20
2022-11-28T00:21:50.488Z,6.03
2022-11-28T00:24:19.933Z,5.33
2022-11-28T00:26:49.369Z,5.90
2022-11-28T00:29:18.877Z,5.53
2022-11-28T00:31:48.444Z,7.37
2022-11-28T00:34:17.846Z,5.63
2022-11-28T00:36:48.780Z,5.10
2022-11-28T00:39:19.090Z,5.20
2022-11-28T00:41:48.519Z,5.67
2022-11-28T00:44:17.987Z,5.27
2022-11-28T00:46:47.415Z,5.43
2022-11-28T00:49:16.936Z,5.40
2022-11-28T00:51:46.363Z,6.43
2022-11-28T00:54:15.816Z,5.80
2022-11-28T00:56:45.246Z,5.70
2022-11-28T00:59:14.704Z,5.80
2022-11-28T01:01:45.832Z,6.17
2022-11-28T01:04:18.016Z,5.63
2022-11-28T01:06:51.902Z,5.47
2022-11-28T01:09:25.083Z,5.03
2022-11-28T01:11:56.525Z,5.47
2022-11-28T01:14:27.412Z,5.77
2022-11-28T01:16:57.113Z,5.40
2022-11-28T01:19:26.554Z,4.97
2022-11-28T01:21:55.994Z,5.73
2022-11-28T01:24:25.444Z,5.57
2022-11-28T01:26:54.888Z,5.90
2022-11-28T01:29:24.569Z,5.93
2022-11-28T01:31:54.083Z,5.67
2022-11-28T01:34:23.533Z,5.87
2022-11-28T01:36:52.977Z,7.37
2022-11-28T01:39:22.502Z,6.30
2022-11-28T01:41:51.951Z,6.25
2022-11-28T01:44:25.984Z,5.90
2022-11-28T01:46:55.512Z,5.40
2022-11-28T01:49:35.383Z,5.90
2022-11-28T01:52:13.042Z,4.80
2022-11-28T01:54:47.364Z,5.70
2022-11-28T01:57:24.203Z,5.63
2022-11-28T02:00:01.176Z,5.63
2022-11-28T02:02:35.512Z,5.70
2022-11-28T02:05:05.612Z,5.00
2022-11-28T02:07:36.817Z,5.30
2022-11-28T02:10:10.144Z,5.27
2022-11-28T02:13:24.902Z,5.63
2022-11-28T02:16:13.948Z,5.93
2022-11-28T02:18:59.845Z,6.20
2022-11-28T02:21:45.731Z,5.73
2022-11-28T02:24:45.601Z,6.53
2022-11-28T02:27:22.152Z,5.63
2022-11-28T02:30:22.124Z,5.27
2022-11-28T02:33:13.673Z,5.93
2022-11-28T02:36:11.424Z,5.93
2022-11-28T02:39:06.074Z,6.23
2022-11-28T02:41:45.813Z,5.47
2022-11-28T02:44:27.728Z,6.17
2022-11-28T02:47:27.733Z,6.20
2022-11-28T02:50:16.651Z,6.07
2022-11-28T02:52:53.558Z,7.03
2022-11-28T02:55:25.006Z,5.77
2022-11-28T02:57:56.352Z,5.83
2022-11-28T03:00:30.577Z,6.20
2022-11-28T03:03:16.645Z,6.23
2022-11-28T03:06:14.272Z,7.33
2022-11-28T03:09:21.656Z,6.37
2022-11-28T03:12:30.393Z,6.50
2022-11-28T03:15:06.923Z,6.30
2022-11-28T03:18:04.848Z,5.67
2022-11-28T03:20:50.943Z,5.13
2022-11-28T03:23:47.601Z,5.30
2022-11-28T03:26:54.336Z,6.10
2022-11-28T03:29:30.799Z,5.30
2022-11-28T03:32:10.878Z,5.63
2022-11-28T03:34:47.772Z,5.60
2022-11-28T03:37:24.281Z,6.37
2022-11-28T03:39:58.370Z,6.00
2022-11-28T03:42:32.148Z,5.70
2022-11-28T03:45:17.725Z,6.37
2022-11-28T03:47:52.365Z,5.77
2022-11-28T03:50:32.176Z,5.10
2022-11-28T03:53:06.552Z,5.73
2022-11-28T03:56:07.174Z,5.03
2022-11-28T03:58:43.623Z,5.40
2022-11-28T04:01:37.220Z,5.07
2022-11-28T04:04:31.747Z,5.23
2022-11-28T04:07:08.574Z,5.27
2022-11-28T04:10:00.499Z,5.50
2022-11-28T04:13:02.008Z,7.03
2022-11-28T04:15:58.652Z,6.07
2022-11-28T04:18:35.066Z,4.90
2022-11-28T04:21:11.649Z,4.90
2022-11-28T04:23:45.294Z,4.90
2022-11-28T04:26:28.282Z,5.80
2022-11-28T04:29:01.231Z,6.40
2022-11-28T04:31:33.007Z,5.60
2022-11-28T04:34:07.031Z,6.43
2022-11-28T04:36:40.686Z,6.80
2022-11-28T04:39:14.806Z,5.70
2022-11-28T04:42:14.265Z,5.60
2022-11-28T04:44:57.076Z,6.20
2022-11-28T04:47:27.820Z,6.40
2022-11-28T04:49:57.571Z,6.03
2022-11-28T04:52:49.604Z,5.60
2022-11-28T04:55:32.105Z,5.77
2022-11-28T04:58:36.450Z,5.13
2022-11-28T05:01:10.572Z,5.63
2022-11-28T05:03:42.919Z,5.70
2022-11-28T05:06:14.175Z,6.57
2022-11-28T05:08:43.605Z,5.90
2022-11-28T05:11:13.067Z,6.83
2022-11-28T05:13:42.483Z,6.13
2022-11-28T05:16:13.680Z,6.80
2022-11-28T05:18:43.962Z,6.47
2022-11-28T05:21:14.087Z,6.72
2022-11-28T05:23:45.881Z,6.47
2022-11-28T05:26:20.015Z,6.30
2022-11-28T05:28:51.971Z,6.87
2022-11-28T05:31:23.649Z,6.83
2022-11-28T05:33:54.564Z,5.80
2022-11-28T05:36:24.627Z,5.87
2022-11-28T05:38:54.067Z,7.00
2022-11-28T05:41:27.487Z,6.80
2022-11-28T05:43:59.638Z,6.87
2022-11-28T05:46:30.727Z,5.57
2022-11-28T05:49:00.326Z,7.23
2022-11-28T05:51:29.765Z,6.30
2022-11-28T05:53:59.208Z,6.83
2022-11-28T05:56:28.662Z,7.03
2022-11-28T05:58:58.176Z,6.53
2022-11-28T06:01:30.565Z,6.10
2022-11-28T06:04:02.130Z,6.50
2022-11-28T06:06:35.242Z,6.97
2022-11-28T06:09:06.093Z,6.27
2022-11-28T06:11:36.539Z,6.00
2022-11-28T06:14:05.990Z,5.47
2022-11-28T06:16:35.494Z,5.70
2022-11-28T06:19:07.281Z,4.93
2022-11-28T06:21:37.200Z,5.10
2022-11-28T06:24:06.953Z,7.43
2022-11-28T06:26:36.404Z,6.00
2022-11-28T06:29:05.840Z,5.90
2022-11-28T06:31:35.331Z,5.27
2022-11-28T06:34:04.796Z,5.83
2022-11-28T06:36:35.275Z,4.60
2022-11-28T06:39:04.711Z,5.43
2022-11-28T06:41:34.158Z,5.60
2022-11-28T06:44:03.599Z,5.67
2022-11-28T06:46:33.084Z,5.03
2022-11-28T06:49:02.556Z,5.80
2022-11-28T06:51:31.999Z,5.10
2022-11-28T06:54:01.439Z,4.23
2022-11-28T06:56:31.209Z,4.73
2022-11-28T06:59:02.246Z,5.20
2022-11-28T07:01:34.451Z,5.20
2022-11-28T07:04:03.926Z,5.93
2022-11-28T07:06:35.008Z,6.97
2022-11-28T07:09:04.887Z,5.43
2022-11-28T07:11:34.399Z,5.63
2022-11-28T07:14:04.509Z,5.80
2022-11-28T07:16:35.570Z,5.80
2022-11-28T07:19:05.787Z,5.00
2022-11-28T07:21:35.471Z,5.73
2022-11-28T07:24:04.978Z,6.27
2022-11-28T07:26:36.335Z,5.53
2022-11-28T07:29:07.314Z,5.63
2022-11-28T07:31:38.564Z,6.70
2022-11-28T07:34:08.215Z,6.40
2022-11-28T07:36:38.107Z,8.03
2022-11-28T07:39:10.132Z,7.77
2022-11-28T07:41:39.581Z,7.80
2022-11-28T07:44:09.031Z,8.17
2022-11-28T07:46:39.761Z,7.23
2022-11-28T07:49:09.490Z,8.10
2022-11-28T07:51:39.862Z,7.63
2022-11-28T07:54:10.018Z,7.33
2022-11-28T07:57:10.765Z,6.57
2022-11-28T07:59:12.068Z,8.60
2022-11-28T08:01:41.943Z,7.37
2022-11-28T08:04:12.392Z,7.20
2022-11-28T08:06:44.430Z,7.10
2022-11-28T08:09:13.857Z,6.30
2022-11-28T08:11:43.753Z,8.33
2022-11-28T08:14:14.165Z,7.40
2022-11-28T08:16:45.346Z,7.77
2022-11-28T08:19:15.229Z,8.23
2022-11-28T08:21:44.885Z,9.47
2022-11-28T08:24:14.893Z,9.00
2022-11-28T08:26:44.346Z,9.47
2022-11-28T08:29:14.243Z,8.90
2022-11-28T08:31:44.269Z,7.90
2022-11-28T08:34:13.782Z,8.53
2022-11-28T08:36:43.557Z,7.63
2022-11-28T08:39:28.777Z,8.93
2022-11-28T08:41:44.896Z,8.50
2022-11-28T08:44:14.595Z,7.40
2022-11-28T08:46:44.116Z,7.30
2022-11-28T08:49:13.543Z,5.83
2022-11-28T08:51:43.176Z,6.50
2022-11-28T08:54:12.741Z,7.20
2022-11-28T08:56:42.203Z,6.67
2022-11-28T08:59:11.817Z,5.77
2022-11-28T09:01:41.329Z,6.10
2022-11-28T09:04:10.847Z,7.00
2022-11-28T09:06:43.340Z,6.47
2022-11-28T09:09:12.772Z,7.40
2022-11-28T09:11:42.769Z,7.30
2022-11-28T09:14:12.570Z,6.70
2022-11-28T09:16:42.501Z,7.17
2022-11-28T09:19:11.977Z,7.83
2022-11-28T09:21:42.113Z,7.87
2022-11-28T09:24:13.175Z,6.97
2022-11-28T09:26:43.570Z,6.53
2022-11-28T09:29:13.006Z,5.70
2022-11-28T09:31:47.168Z,6.20
2022-11-28T09:34:13.611Z,6.30
2022-11-28T09:36:43.205Z,5.53
2022-11-28T09:39:12.630Z,6.40
2022-11-28T09:42:12.427Z,5.80
2022-11-28T09:44:55.294Z,6.33
2022-11-28T09:47:29.509Z,6.17
2022-11-28T09:50:07.690Z,6.90
2022-11-28T09:53:16.584Z,6.90
2022-11-28T09:55:58.803Z,6.33
2022-11-28T09:58:36.596Z,7.70
2022-11-28T10:01:13.237Z,7.83
2022-11-28T10:04:17.014Z,6.90
2022-11-28T10:07:21.046Z,6.80
2022-11-28T10:10:21.843Z,6.80
2022-11-28T10:13:21.674Z,5.47
2022-11-28T10:16:00.871Z,6.70
2022-11-28T10:18:40.781Z,7.10
2022-11-28T10:21:23.423Z,6.93
2022-11-28T10:23:57.486Z,8.60
2022-11-28T10:26:46.278Z,8.00
2022-11-28T10:29:44.588Z,6.10
2022-11-28T10:32:21.460Z,5.87
2022-11-28T10:35:16.638Z,8.17
2022-11-28T10:37:46.187Z,7.07
2022-11-28T10:40:41.060Z,8.40
2022-11-28T10:43:46.776Z,7.20
2022-11-28T10:46:32.906Z,9.27
2022-11-28T10:49:23.381Z,8.37
2022-11-28T10:52:18.390Z,8.40
2022-11-28T10:55:25.580Z,9.00
2022-11-28T10:58:26.500Z,8.20
2022-11-28T11:00:58.690Z,7.70
2022-11-28T11:03:33.362Z,8.83
2022-11-28T11:06:03.450Z,8.50
2022-11-28T11:08:39.714Z,9.40
2022-11-28T11:11:25.782Z,7.50
2022-11-28T11:14:05.185Z,8.67
2022-11-28T11:16:59.946Z,7.67
2022-11-28T11:19:34.029Z,7.97
2022-11-28T11:22:27.048Z,7.00
2022-11-28T11:25:17.071Z,6.00
2022-11-28T11:28:02.887Z,5.97
2022-11-28T11:30:42.228Z,7.57
2022-11-28T11:33:18.224Z,8.67
2022-11-28T11:35:50.544Z,7.77
2022-11-28T11:38:37.448Z,7.23
2022-11-28T11:41:32.326Z,8.30
2022-11-28T11:44:18.299Z,7.73
2022-11-28T11:46:56.147Z,7.90
2022-11-28T11:49:41.636Z,8.83
2022-11-28T11:52:26.555Z,8.73
2022-11-28T11:55:06.121Z,6.60
2022-11-28T11:57:54.861Z,8.20
2022-11-28T12:00:28.955Z,10.03
2022-11-28T12:03:03.022Z,6.80
2022-11-28T12:08:50.592Z,8.60
2022-11-28T12:11:51.900Z,7.93
2022-11-28T12:14:34.688Z,7.90
2022-11-28T12:20:36.095Z,8.90
2022-11-28T12:23:15.794Z,9.10
2022-11-28T12:26:04.112Z,8.00
2022-11-28T12:28:50.197Z,7.57
2022-11-28T12:31:33.084Z,8.47
2022-11-28T12:34:38.532Z,6.83
2022-11-28T12:37:21.542Z,7.70
2022-11-28T12:40:19.877Z,7.60
2022-11-28T12:43:10.306Z,7.97
2022-11-28T12:46:25.046Z,8.17
2022-11-28T12:49:05.176Z,6.83
2022-11-28T12:51:56.687Z,8.37
2022-11-28T12:54:51.841Z,8.47
2022-11-28T12:57:53.250Z,6.00
2022-11-28T13:00:28.861Z,8.10
2022-11-28T13:03:34.693Z,7.00
2022-11-28T13:06:14.606Z,6.97
2022-11-28T13:09:03.745Z,7.13
2022-11-28T13:12:03.041Z,7.30
2022-11-28T13:14:52.285Z,7.33
2022-11-28T13:17:29.081Z,7.03
2022-11-28T13:20:15.093Z,7.67
2022-11-28T13:23:03.627Z,6.87
2022-11-28T13:25:58.843Z,7.63
2022-11-28T13:28:50.486Z,6.40
2022-11-28T13:31:42.560Z,7.07
2022-11-28T13:34:20.287Z,7.63
2022-11-28T13:40:29.894Z,7.10
2022-11-28T13:43:24.796Z,7.17
2022-11-28T13:45:55.442Z,5.77
2022-11-28T13:51:25.328Z,6.67
2022-11-28T13:54:12.277Z,5.60
2022-11-28T13:56:41.720Z,7.30
2022-11-28T13:59:18.354Z,7.77
2022-11-28T14:01:51.670Z,7.57
2022-11-28T14:04:21.609Z,6.77
2022-11-28T14:06:59.213Z,7.23
2022-11-28T14:09:48.435Z,6.17
2022-11-28T14:12:25.212Z,6.70
2022-11-28T14:15:06.548Z,6.50
2022-11-28T14:18:39.193Z,6.60
2022-11-28T14:20:59.356Z,7.40
2022-11-28T14:23:48.414Z,7.73
2022-11-28T14:26:37.097Z,8.63
2022-11-28T14:29:11.100Z,8.53
2022-11-28T14:31:55.206Z,9.50
2022-11-28T14:34:39.999Z,8.10
2022-11-28T14:37:33.326Z,6.63
2022-11-28T14:40:03.630Z,6.20
2022-11-28T14:42:59.720Z,8.27
2022-11-28T14:45:43.346Z,7.30
2022-11-28T14:48:25.911Z,6.83
2022-11-28T14:51:01.349Z,7.63
2022-11-28T14:53:45.574Z,7.47
2022-11-28T14:56:29.640Z,8.00
2022-11-28T14:59:03.929Z,7.37
2022-11-28T15:01:52.741Z,6.97
2022-11-28T15:05:09.199Z,9.40
2022-11-28T15:07:58.220Z,8.83
2022-11-28T15:10:36.292Z,7.47
2022-11-28T15:14:00.589Z,9.47
2022-11-28T15:16:33.588Z,9.20
2022-11-28T15:19:19.783Z,8.13
2022-11-28T15:21:52.543Z,8.17
2022-11-28T15:24:38.170Z,8.17
2022-11-28T15:27:15.169Z,7.43
2022-11-28T15:29:47.802Z,7.50
2022-11-28T15:32:17.314Z,9.33
2022-11-28T15:34:49.925Z,9.40
2022-11-28T15:37:20.897Z,9.90
2022-11-28T15:39:51.599Z,9.33
2022-11-28T15:42:31.228Z,10.47
2022-11-28T15:45:16.797Z,11.10
2022-11-28T15:47:49.226Z,11.90
2022-11-28T15:50:26.103Z,10.57
2022-11-28T15:53:06.024Z,9.47
2022-11-28T15:55:36.234Z,8.03
2022-11-28T15:58:25.538Z,7.77
2022-11-28T16:00:59.613Z,8.18
2022-11-28T16:03:33.557Z,8.33
2022-11-28T16:06:05.786Z,9.63
2022-11-28T16:08:42.765Z,9.37
2022-11-28T16:11:14.551Z,7.97
2022-11-28T16:13:44.341Z,11.40
2022-11-28T16:16:18.310Z,9.53
2022-11-28T16:18:57.922Z,10.37
2022-11-28T16:21:40.527Z,10.77
2022-11-28T16:24:33.947Z,11.13
2022-11-28T16:27:04.732Z,11.00
2022-11-28T16:29:37.199Z,12.17
2022-11-28T16:32:42.570Z,10.67
2022-11-28T16:35:14.003Z,9.03
2022-11-28T16:37:43.447Z,9.10
2022-11-28T16:40:17.403Z,10.37
2022-11-28T16:42:56.300Z,10.27
2022-11-28T16:45:34.608Z,11.23
2022-11-28T16:48:13.203Z,9.43
2022-11-28T16:50:55.875Z,9.67
2022-11-28T16:53:49.297Z,9.30
2022-11-28T16:56:38.536Z,8.03
2022-11-28T16:59:18.048Z,12.23
2022-11-28T17:01:53.863Z,9.20
2022-11-28T17:04:29.401Z,9.47
2022-11-28T17:07:05.755Z,11.67
2022-11-28T17:09:36.713Z,10.70
2022-11-28T17:12:30.902Z,10.43
2022-11-28T17:15:00.488Z,8.80
2022-11-28T17:17:31.644Z,8.37
2022-11-28T17:20:01.158Z,9.43
2022-11-28T17:22:43.521Z,9.90
2022-11-28T17:25:20.086Z,9.80
2022-11-28T17:27:50.274Z,10.57
2022-11-28T17:30:21.034Z,11.20
2022-11-28T17:32:52.193Z,10.80
2022-11-28T17:35:25.248Z,9.00
2022-11-28T17:37:54.688Z,9.53
2022-11-28T17:40:33.286Z,8.10
2022-11-28T17:43:03.712Z,9.10
2022-11-28T17:45:36.355Z,9.90
2022-11-28T17:48:07.368Z,8.90
2022-11-28T17:50:37.285Z,8.57
2022-11-28T17:53:06.728Z,8.77
2022-11-28T17:55:36.263Z,9.37
2022-11-28T17:58:05.791Z,11.03
2022-11-28T18:00:35.249Z,9.27
2022-11-28T18:03:04.699Z,12.13
2022-11-28T18:05:39.696Z,11.10
2022-11-28T18:08:09.654Z,12.37
2022-11-28T18:10:39.583Z,10.17
2022-11-28T18:13:10.323Z,10.03
2022-11-28T18:15:41.892Z,9.03
2022-11-28T18:18:11.503Z,11.37
2022-11-28T18:20:40.971Z,11.13
2022-11-28T18:23:12.696Z,10.80
2022-11-28T18:25:46.878Z,11.00
2022-11-28T18:28:19.047Z,11.30
2022-11-28T18:30:49.444Z,11.57
2022-11-28T18:33:19.019Z,10.00
2022-11-28T18:35:48.528Z,9.77
2022-11-28T18:38:17.972Z,9.87
2022-11-28T18:40:47.426Z,12.50
2022-11-28T18:43:16.870Z,11.53
2022-11-28T18:45:47.005Z,11.23
2022-11-28T18:48:16.441Z,11.60
2022-11-28T18:50:45.901Z,12.23
2022-11-28T18:53:15.398Z,10.90
2022-11-28T18:55:44.856Z,12.57
2022-11-28T18:58:14.298Z,10.93
2022-11-28T19:00:43.783Z,7.97
2022-11-28T19:03:13.252Z,8.97
2022-11-28T19:05:45.648Z,11.80
2022-11-28T19:08:15.095Z,10.37
2022-11-28T19:10:44.717Z,10.83
2022-11-28T19:13:14.156Z,10.30
2022-11-28T19:15:43.617Z,11.13
2022-11-28T19:18:13.723Z,13.07
2022-11-28T19:20:44.235Z,13.87
2022-11-28T19:23:13.670Z,11.40
2022-11-28T19:25:44.399Z,10.37
2022-11-28T19:28:14.605Z,9.13
2022-11-28T19:30:44.144Z,9.53
2022-11-28T19:33:13.571Z,8.43
2022-11-28T19:35:43.033Z,9.87
2022-11-28T19:38:12.485Z,9.30
2022-11-28T19:40:41.946Z,10.90
2022-11-28T19:43:11.381Z,9.40
2022-11-28T19:45:40.908Z,10.03
2022-11-28T19:48:10.432Z,9.60
2022-11-28T19:50:40.170Z,8.30
2022-11-28T19:53:09.604Z,11.47
2022-11-28T19:55:39.073Z,8.63
2022-11-28T19:58:08.501Z,8.57
2022-11-28T20:00:38.604Z,9.23
2022-11-28T20:03:08.479Z,9.33
2022-11-28T20:05:41.548Z,8.20
2022-11-28T20:08:11.061Z,8.13
2022-11-28T20:10:41.350Z,7.00
2022-11-28T20:13:10.784Z,8.07
2022-11-28T20:15:40.271Z,10.40
2022-11-28T20:18:09.771Z,9.07
2022-11-28T20:20:39.240Z,7.70
2022-11-28T20:23:08.739Z,9.20
2022-11-28T20:25:38.192Z,7.47
2022-11-28T20:28:07.624Z,9.73
2022-11-28T20:30:38.248Z,8.83
2022-11-28T20:33:07.691Z,9.83
2022-11-28T20:35:37.149Z,8.83
2022-11-28T20:38:06.590Z,6.53
2022-11-28T20:40:36.046Z,8.03
2022-11-28T20:43:05.484Z,6.83
2022-11-28T20:45:35.053Z,8.53
2022-11-28T20:48:04.587Z,8.83
2022-11-28T20:50:34.053Z,8.87
2022-11-28T20:53:03.492Z,9.30
2022-11-28T20:55:32.954Z,8.97
2022-11-28T20:58:02.384Z,7.73
2022-11-28T21:00:31.845Z,6.97
2022-11-28T21:03:01.273Z,6.33
2022-11-28T21:05:30.784Z,6.43
2022-11-28T21:08:00.262Z,6.00
2022-11-28T21:10:31.316Z,7.47
2022-11-28T21:13:00.748Z,7.47
2022-11-28T21:15:30.214Z,9.50
2022-11-28T21:17:59.650Z,7.03
2022-11-28T21:20:29.101Z,7.37
2022-11-28T21:22:58.540Z,13.10
2022-11-28T21:25:27.997Z,11.23
2022-11-28T21:27:57.915Z,12.37
2022-11-28T21:30:27.379Z,10.90
2022-11-28T21:32:56.822Z,10.50
2022-11-28T21:35:26.354Z,9.40
2022-11-28T21:37:56.995Z,8.73
2022-11-28T21:40:26.450Z,7.93
2022-11-28T21:42:55.895Z,7.30
2022-11-28T21:45:25.593Z,7.73
2022-11-28T21:47:55.041Z,9.23
2022-11-28T21:50:24.646Z,10.10
2022-11-28T21:52:54.093Z,8.50
2022-11-28T21:55:23.559Z,10.43
2022-11-28T21:57:53.210Z,8.80
2022-11-28T22:00:46.020Z,9.70
2022-11-28T22:02:58.152Z,10.27
2022-11-28T22:05:25.080Z,8.00
2022-11-28T22:07:54.664Z,9.00
2022-11-28T22:10:24.407Z,9.97
2022-11-28T22:12:56.634Z,6.93
2022-11-28T22:15:26.082Z,7.57
2022-11-28T22:17:55.519Z,6.17
2022-11-28T22:20:24.971Z,9.17
2022-11-28T22:22:54.418Z,7.83
2022-11-28T22:25:23.903Z,8.47
2022-11-28T22:27:53.348Z,9.07
2022-11-28T22:30:22.826Z,7.93
2022-11-28T22:32:52.849Z,10.20
2022-11-28T22:35:22.467Z,8.83
2022-11-28T22:37:55.010Z,8.93
2022-11-28T22:40:24.470Z,9.20
2022-11-28T22:42:56.690Z,8.00
2022-11-28T22:45:26.199Z,9.97
2022-11-28T22:47:55.660Z,11.67
2022-11-28T22:50:25.783Z,9.10
2022-11-28T22:52:55.224Z,8.20
2022-11-28T22:55:24.677Z,7.90
2022-11-28T22:57:54.115Z,8.20
2022-11-28T23:00:23.641Z,8.10
2022-11-28T23:02:53.346Z,7.77
2022-11-28T23:05:22.876Z,8.53
2022-11-28T23:07:52.404Z,8.33
2022-11-28T23:10:22.195Z,9.00
2022-11-28T23:12:51.633Z,8.57
2022-11-28T23:15:21.364Z,7.90
2022-11-28T23:17:51.265Z,7.43
2022-11-28T23:20:22.158Z,8.30
2022-11-28T23:22:51.597Z,8.47
2022-11-28T23:25:21.075Z,9.13
2022-11-28T23:27:50.514Z,8.47
2022-11-28T23:30:20.037Z,6.00
2022-11-28T23:32:49.542Z,9.10
2022-11-28T23:35:19.065Z,8.10
2022-11-28T23:37:48.520Z,8.57
2022-11-28T23:40:17.992Z,7.97
2022-11-28T23:42:47.421Z,7.43
2022-11-28T23:45:16.930Z,5.50
2022-11-28T23:47:46.313Z,5.00
2022-11-28T23:50:15.765Z,4.60
2022-11-28T23:52:45.184Z,4.70
2022-11-28T23:55:14.640Z,5.70
2022-11-28T23:57:44.068Z,6.07
